sensor_id;sensor_type;location;lat;lon;timestamp;P1;durP1;ratioP1;P2;durP2;ratioP2
1523;SDS011;755;53.658;10.118;2023-04-24T00:07:08;8.40;;;4.80;;
1523;SDS011;755;53.658;10.118;2023-04-24T00:17:11;9.23;;;5.32;;
1523;SDS011;755;53.658;10.118;2023-04-24T00:27:14;10.20;;;5.22;;
1523;SDS011;755;53.658;10.118;2023-04-24T00:37:18;8.55;;;5.53;;
1523;SDS011;755;53.658;10.118;2023-04-24T00:47:20;8.70;;;5.57;;
1523;SDS011;755;53.658;10.118;2023-04-24T00:57:26;8.50;;;6.50;;
1523;SDS011;755;53.658;10.118;2023-04-24T01:07:29;10.63;;;6.60;;
1523;SDS011;755;53.658;10.118;2023-04-24T01:17:33;10.52;;;7.75;;
1523;SDS011;755;53.658;10.118;2023-04-24T01:27:38;18.75;;;9.23;;
1523;SDS011;755;53.658;10.118;2023-04-24T01:37:40;13.70;;;7.35;;
1523;SDS011;755;53.658;10.118;2023-04-24T01:47:44;15.23;;;7.05;;
1523;SDS011;755;53.658;10.118;2023-04-24T01:57:47;9.35;;;6.32;;
1523;SDS011;755;53.658;10.118;2023-04-24T02:07:52;8.05;;;4.65;;
1523;SDS011;755;53.658;10.118;2023-04-24T02:17:54;7.30;;;4.22;;
1523;SDS011;755;53.658;10.118;2023-04-24T02:27:58;7.13;;;4.22;;
1523;SDS011;755;53.658;10.118;2023-04-24T02:38:03;4.60;;;3.57;;
1523;SDS011;755;53.658;10.118;2023-04-24T02:48:08;5.30;;;3.65;;
1523;SDS011;755;53.658;10.118;2023-04-24T02:58:10;3.83;;;3.10;;
1523;SDS011;755;53.658;10.118;2023-04-24T03:08:14;5.30;;;3.38;;
1523;SDS011;755;53.658;10.118;2023-04-24T03:18:20;6.70;;;2.80;;
1523;SDS011;755;53.658;10.118;2023-04-24T03:28:24;3.45;;;2.10;;
1523;SDS011;755;53.658;10.118;2023-04-24T03:38:26;3.17;;;2.33;;
1523;SDS011;755;53.658;10.118;2023-04-24T03:48:30;4.75;;;2.40;;
1523;SDS011;755;53.658;10.118;2023-04-24T03:58:32;3.10;;;1.75;;
1523;SDS011;755;53.658;10.118;2023-04-24T04:08:36;2.90;;;1.40;;
1523;SDS011;755;53.658;10.118;2023-04-24T04:18:38;3.10;;;2.20;;
1523;SDS011;755;53.658;10.118;2023-04-24T04:28:41;2.75;;;2.00;;
1523;SDS011;755;53.658;10.118;2023-04-24T04:38:44;6.93;;;2.58;;
1523;SDS011;755;53.658;10.118;2023-04-24T04:48:48;3.03;;;1.48;;
1523;SDS011;755;53.658;10.118;2023-04-24T04:58:50;3.65;;;2.17;;
1523;SDS011;755;53.658;10.118;2023-04-24T05:08:53;2.13;;;1.30;;
1523;SDS011;755;53.658;10.118;2023-04-24T05:18:57;6.78;;;1.42;;
1523;SDS011;755;53.658;10.118;2023-04-24T05:29:00;3.28;;;1.05;;
1523;SDS011;755;53.658;10.118;2023-04-24T05:39:02;2.25;;;1.25;;
1523;SDS011;755;53.658;10.118;2023-04-24T05:49:06;4.10;;;1.00;;
1523;SDS011;755;53.658;10.118;2023-04-24T05:59:08;2.88;;;1.20;;
1523;SDS011;755;53.658;10.118;2023-04-24T06:09:11;2.88;;;1.20;;
1523;SDS011;755;53.658;10.118;2023-04-24T06:19:13;1.83;;;1.17;;
1523;SDS011;755;53.658;10.118;2023-04-24T06:29:16;2.45;;;1.30;;
1523;SDS011;755;53.658;10.118;2023-04-24T06:39:18;1.52;;;0.85;;
1523;SDS011;755;53.658;10.118;2023-04-24T06:49:21;1.55;;;1.00;;
1523;SDS011;755;53.658;10.118;2023-04-24T06:59:23;5.47;;;1.20;;
1523;SDS011;755;53.658;10.118;2023-04-24T07:09:27;2.67;;;1.10;;
1523;SDS011;755;53.658;10.118;2023-04-24T07:19:28;1.65;;;1.10;;
1523;SDS011;755;53.658;10.118;2023-04-24T07:29:32;3.22;;;1.48;;
1523;SDS011;755;53.658;10.118;2023-04-24T07:39:34;2.10;;;1.90;;
1523;SDS011;755;53.658;10.118;2023-04-24T07:49:37;2.10;;;1.70;;
1523;SDS011;755;53.658;10.118;2023-04-24T07:59:39;8.88;;;1.85;;
1523;SDS011;755;53.658;10.118;2023-04-24T08:09:43;3.35;;;2.10;;
1523;SDS011;755;53.658;10.118;2023-04-24T08:19:45;8.13;;;2.88;;
1523;SDS011;755;53.658;10.118;2023-04-24T08:30:15;5.47;;;2.57;;
1523;SDS011;755;53.658;10.118;2023-04-24T08:40:17;7.20;;;3.53;;
1523;SDS011;755;53.658;10.118;2023-04-24T08:50:24;5.85;;;2.67;;
1523;SDS011;755;53.658;10.118;2023-04-24T09:00:30;6.53;;;2.15;;
1523;SDS011;755;53.658;10.118;2023-04-24T09:10:33;6.35;;;2.90;;
1523;SDS011;755;53.658;10.118;2023-04-24T09:31:07;5.38;;;3.67;;
1523;SDS011;755;53.658;10.118;2023-04-24T09:41:13;4.00;;;3.10;;
1523;SDS011;755;53.658;10.118;2023-04-24T09:51:17;5.07;;;3.10;;
1523;SDS011;755;53.658;10.118;2023-04-24T10:01:28;4.15;;;3.40;;
1523;SDS011;755;53.658;10.118;2023-04-24T10:11:33;10.02;;;4.15;;
1523;SDS011;755;53.658;10.118;2023-04-24T10:21:35;8.77;;;4.13;;
1523;SDS011;755;53.658;10.118;2023-04-24T10:31:43;7.93;;;4.47;;
1523;SDS011;755;53.658;10.118;2023-04-24T10:41:46;10.88;;;5.97;;
1523;SDS011;755;53.658;10.118;2023-04-24T10:51:52;12.70;;;6.43;;
1523;SDS011;755;53.658;10.118;2023-04-24T11:01:55;15.23;;;7.13;;
1523;SDS011;755;53.658;10.118;2023-04-24T11:12:04;12.57;;;8.15;;
1523;SDS011;755;53.658;10.118;2023-04-24T11:22:13;11.75;;;7.60;;
1523;SDS011;755;53.658;10.118;2023-04-24T11:32:19;11.55;;;7.40;;
1523;SDS011;755;53.658;10.118;2023-04-24T11:42:25;13.35;;;7.20;;
1523;SDS011;755;53.658;10.118;2023-04-24T11:52:30;12.15;;;7.05;;
1523;SDS011;755;53.658;10.118;2023-04-24T12:02:32;13.07;;;7.95;;
1523;SDS011;755;53.658;10.118;2023-04-24T12:12:35;9.77;;;5.30;;
1523;SDS011;755;53.658;10.118;2023-04-24T12:22:44;11.65;;;4.95;;
1523;SDS011;755;53.658;10.118;2023-04-24T12:32:48;8.82;;;5.40;;
1523;SDS011;755;53.658;10.118;2023-04-24T12:42:51;7.45;;;4.63;;
1523;SDS011;755;53.658;10.118;2023-04-24T12:52:55;9.70;;;4.55;;
1523;SDS011;755;53.658;10.118;2023-04-24T13:02:57;8.90;;;4.55;;
1523;SDS011;755;53.658;10.118;2023-04-24T13:13:00;7.95;;;4.97;;
1523;SDS011;755;53.658;10.118;2023-04-24T13:23:02;8.88;;;5.53;;
1523;SDS011;755;53.658;10.118;2023-04-24T13:33:05;8.90;;;5.70;;
1523;SDS011;755;53.658;10.118;2023-04-24T13:43:07;10.02;;;5.78;;
1523;SDS011;755;53.658;10.118;2023-04-24T13:53:11;8.45;;;5.68;;
1523;SDS011;755;53.658;10.118;2023-04-24T14:03:16;7.03;;;5.23;;
1523;SDS011;755;53.658;10.118;2023-04-24T14:13:20;6.43;;;4.20;;
1523;SDS011;755;53.658;10.118;2023-04-24T14:23:23;6.45;;;4.70;;
1523;SDS011;755;53.658;10.118;2023-04-24T14:33:30;6.25;;;4.40;;
1523;SDS011;755;53.658;10.118;2023-04-24T14:43:36;4.63;;;3.80;;
1523;SDS011;755;53.658;10.118;2023-04-24T14:53:41;5.43;;;3.53;;
1523;SDS011;755;53.658;10.118;2023-04-24T15:03:43;9.55;;;7.45;;
1523;SDS011;755;53.658;10.118;2023-04-24T15:13:47;12.30;;;8.80;;
1523;SDS011;755;53.658;10.118;2023-04-24T15:23:49;15.30;;;10.95;;
1523;SDS011;755;53.658;10.118;2023-04-24T15:33:52;9.52;;;7.43;;
1523;SDS011;755;53.658;10.118;2023-04-24T15:43:54;10.27;;;7.18;;
1523;SDS011;755;53.658;10.118;2023-04-24T15:53:57;3.42;;;3.05;;
1523;SDS011;755;53.658;10.118;2023-04-24T16:03:59;3.95;;;2.05;;
1523;SDS011;755;53.658;10.118;2023-04-24T16:14:03;5.95;;;3.67;;
1523;SDS011;755;53.658;10.118;2023-04-24T16:24:05;11.40;;;6.88;;
1523;SDS011;755;53.658;10.118;2023-04-24T16:34:08;16.10;;;7.32;;
1523;SDS011;755;53.658;10.118;2023-04-24T16:44:10;16.90;;;8.27;;
1523;SDS011;755;53.658;10.118;2023-04-24T16:54:14;11.65;;;5.90;;
1523;SDS011;755;53.658;10.118;2023-04-24T17:04:16;6.93;;;4.68;;
1523;SDS011;755;53.658;10.118;2023-04-24T17:14:19;11.15;;;4.68;;
1523;SDS011;755;53.658;10.118;2023-04-24T17:24:23;11.35;;;4.72;;
1523;SDS011;755;53.658;10.118;2023-04-24T17:34:26;10.90;;;4.88;;
1523;SDS011;755;53.658;10.118;2023-04-24T17:44:28;8.95;;;4.95;;
1523;SDS011;755;53.658;10.118;2023-04-24T17:54:31;11.85;;;5.85;;
1523;SDS011;755;53.658;10.118;2023-04-24T18:04:33;9.65;;;5.88;;
1523;SDS011;755;53.658;10.118;2023-04-24T18:14:37;12.02;;;5.93;;
1523;SDS011;755;53.658;10.118;2023-04-24T18:24:39;11.35;;;5.70;;
1523;SDS011;755;53.658;10.118;2023-04-24T18:34:42;9.70;;;4.75;;
1523;SDS011;755;53.658;10.118;2023-04-24T18:44:44;12.98;;;5.40;;
1523;SDS011;755;53.658;10.118;2023-04-24T18:54:47;12.73;;;4.47;;
1523;SDS011;755;53.658;10.118;2023-04-24T19:04:49;13.45;;;4.15;;
1523;SDS011;755;53.658;10.118;2023-04-24T19:14:53;8.57;;;3.72;;
1523;SDS011;755;53.658;10.118;2023-04-24T19:24:57;6.10;;;2.55;;
1523;SDS011;755;53.658;10.118;2023-04-24T19:35:00;8.02;;;2.38;;
1523;SDS011;755;53.658;10.118;2023-04-24T19:45:02;3.92;;;2.58;;
1523;SDS011;755;53.658;10.118;2023-04-24T19:55:06;9.75;;;3.17;;
1523;SDS011;755;53.658;10.118;2023-04-24T20:05:09;9.75;;;2.65;;
1523;SDS011;755;53.658;10.118;2023-04-24T20:15:12;7.35;;;3.15;;
1523;SDS011;755;53.658;10.118;2023-04-24T20:25:14;7.20;;;3.22;;
1523;SDS011;755;53.658;10.118;2023-04-24T20:35:18;19.38;;;4.78;;
1523;SDS011;755;53.658;10.118;2023-04-24T20:45:20;14.68;;;3.90;;
1523;SDS011;755;53.658;10.118;2023-04-24T20:55:24;7.45;;;4.13;;
1523;SDS011;755;53.658;10.118;2023-04-24T21:05:26;13.15;;;4.13;;
1523;SDS011;755;53.658;10.118;2023-04-24T21:15:30;9.18;;;4.13;;
1523;SDS011;755;53.658;10.118;2023-04-24T21:25:32;9.18;;;4.25;;
1523;SDS011;755;53.658;10.118;2023-04-24T21:35:36;21.77;;;4.55;;
1523;SDS011;755;53.658;10.118;2023-04-24T21:45:38;11.43;;;4.15;;
1523;SDS011;755;53.658;10.118;2023-04-24T21:55:41;7.30;;;3.55;;
1523;SDS011;755;53.658;10.118;2023-04-24T22:05:43;12.70;;;3.85;;
1523;SDS011;755;53.658;10.118;2023-04-24T22:15:46;10.02;;;4.55;;
1523;SDS011;755;53.658;10.118;2023-04-24T22:25:49;10.05;;;4.82;;
1523;SDS011;755;53.658;10.118;2023-04-24T22:35:53;18.05;;;5.20;;
1523;SDS011;755;53.658;10.118;2023-04-24T22:45:55;11.80;;;4.95;;
1523;SDS011;755;53.658;10.118;2023-04-24T22:55:58;8.25;;;4.97;;
1523;SDS011;755;53.658;10.118;2023-04-24T23:06:00;10.90;;;5.22;;
1523;SDS011;755;53.658;10.118;2023-04-24T23:16:04;15.13;;;5.82;;
1523;SDS011;755;53.658;10.118;2023-04-24T23:26:06;14.10;;;5.80;;
1523;SDS011;755;53.658;10.118;2023-04-24T23:36:10;14.55;;;6.65;;
1523;SDS011;755;53.658;10.118;2023-04-24T23:46:12;11.63;;;4.85;;
1523;SDS011;755;53.658;10.118;2023-04-24T23:56:15;24.08;;;5.40;;
